createdAt,value
2022-09-11T00:00:40.520Z,99975.09
2022-09-11T00:03:06.960Z,99973.69
2022-09-11T00:05:37.339Z,99980.16
2022-09-11T00:08:03.760Z,99990.22
2022-09-11T00:10:30.166Z,99988.72
2022-09-11T00:12:56.685Z,99981.63
2022-09-11T00:15:23.094Z,99973.78
2022-09-11T00:17:49.478Z,99965.09
2022-09-11T00:20:16.024Z,99970.81
2022-09-11T00:22:42.379Z,99971.88
2022-09-11T00:25:09.072Z,99971.22
2022-09-11T00:27:35.504Z,99983.91
2022-09-11T00:30:01.954Z,99978.59
2022-09-11T00:32:28.310Z,99970.88
2022-09-11T00:34:54.732Z,99973.75
2022-09-11T00:37:21.116Z,99972.22
2022-09-11T00:39:47.882Z,99967.34
2022-09-11T00:42:14.327Z,99970.19
2022-09-11T00:44:40.828Z,99967.75
2022-09-11T00:47:09.090Z,99965.09
2022-09-11T00:49:48.676Z,99954.63
2022-09-11T00:52:20.859Z,99957.47
2022-09-11T00:54:51.817Z,99943.59
2022-09-11T00:57:22.868Z,99945.69
2022-09-11T00:59:51.477Z,99949.50
2022-09-11T01:02:23.258Z,99939.94
2022-09-11T01:04:54.573Z,99941.75
2022-09-11T01:07:22.974Z,99931.38
2022-09-11T01:09:50.324Z,99933.16
2022-09-11T01:12:26.135Z,99925.31
2022-09-11T01:15:00.328Z,99921.09
2022-09-11T01:17:49.520Z,99917.69
2022-09-11T01:20:33.445Z,99914.41
2022-09-11T01:23:33.682Z,99913.78
2022-09-11T01:26:33.452Z,99913.91
2022-09-11T01:29:06.489Z,99907.22
2022-09-11T01:31:44.443Z,99901.94
2022-09-11T01:34:20.865Z,99905.72
2022-09-11T01:36:55.908Z,99909.34
2022-09-11T01:39:26.012Z,99894.59
2022-09-11T01:41:59.247Z,99896.50
2022-09-11T01:44:50.733Z,99907.25
2022-09-11T01:47:19.836Z,99903.34
2022-09-11T01:49:55.684Z,99888.50
2022-09-11T01:52:27.043Z,99887.69
2022-09-11T01:54:57.732Z,99864.84
2022-09-11T01:57:42.117Z,99857.84
2022-09-11T02:00:11.226Z,99856.34
2022-09-11T02:02:42.460Z,99858.06
2022-09-11T02:05:43.697Z,99848.44
2022-09-11T02:08:36.860Z,99843.22
2022-09-11T02:11:08.032Z,99849.75
2022-09-11T02:13:59.528Z,99843.31
2022-09-11T02:16:42.236Z,99835.22
2022-09-11T02:19:12.394Z,99825.91
2022-09-11T02:21:39.315Z,99825.59
2022-09-11T02:24:06.182Z,99825.03
2022-09-11T02:26:37.130Z,99828.81
2022-09-11T02:29:03.617Z,99828.19
2022-09-11T02:31:30.311Z,99823.75
2022-09-11T02:33:56.719Z,99821.44
2022-09-11T02:36:26.113Z,99816.34
2022-09-11T02:38:52.452Z,99824.31
2022-09-11T02:41:27.258Z,99830.09
2022-09-11T02:44:11.956Z,99821.31
2022-09-11T02:47:03.132Z,99831.22
2022-09-11T02:49:54.240Z,99828.88
2022-09-11T02:52:26.318Z,99827.38
2022-09-11T02:54:52.674Z,99841.69
2022-09-11T02:57:34.222Z,99835.19
2022-09-11T03:00:03.718Z,99838.13
2022-09-11T03:02:32.756Z,99842.75
2022-09-11T03:04:59.178Z,99840.41
2022-09-11T03:07:26.018Z,99838.63
2022-09-11T03:09:52.907Z,99839.47
2022-09-11T03:12:19.356Z,99833.41
2022-09-11T03:14:45.759Z,99844.19
2022-09-11T03:17:12.159Z,99838.25
2022-09-11T03:19:38.623Z,99829.47
2022-09-11T03:22:05.084Z,99830.41
2022-09-11T03:24:31.443Z,99834.84
2022-09-11T03:26:57.812Z,99837.41
2022-09-11T03:29:24.214Z,99834.75
2022-09-11T03:31:50.611Z,99842.13
2022-09-11T03:34:17.076Z,99837.97
2022-09-11T03:36:44.047Z,99834.00
2022-09-11T03:39:10.598Z,99831.34
2022-09-11T03:41:36.972Z,99836.44
2022-09-11T03:44:03.481Z,99822.50
2022-09-11T03:46:29.894Z,99824.38
2022-09-11T03:48:56.407Z,99827.28
2022-09-11T03:51:22.794Z,99826.56
2022-09-11T03:53:49.285Z,99829.09
2022-09-11T03:56:15.853Z,99818.91
2022-09-11T03:58:42.288Z,99805.53
2022-09-11T04:01:14.374Z,99802.94
2022-09-11T04:03:41.916Z,99813.44
2022-09-11T04:06:08.607Z,99811.66
2022-09-11T04:08:35.085Z,99807.97
2022-09-11T04:11:04.273Z,99811.84
2022-09-11T04:13:33.270Z,99810.53
2022-09-11T04:16:05.976Z,99813.38
2022-09-11T04:18:35.163Z,99819.09
2022-09-11T04:21:05.984Z,99824.38
2022-09-11T04:23:32.734Z,99823.81
2022-09-11T04:25:59.117Z,99828.34
2022-09-11T04:28:27.308Z,99823.06
2022-09-11T04:30:53.684Z,99823.06
2022-09-11T04:33:20.023Z,99821.41
2022-09-11T04:35:46.445Z,99824.94
2022-09-11T04:38:12.779Z,99825.59
2022-09-11T04:40:39.115Z,99826.69
2022-09-11T04:43:05.559Z,99823.41
2022-09-11T04:45:32.007Z,99829.53
2022-09-11T04:47:58.842Z,99828.69
2022-09-11T04:50:25.267Z,99826.97
2022-09-11T04:52:51.605Z,99822.56
2022-09-11T04:55:18.002Z,99827.06
2022-09-11T04:57:44.446Z,99827.91
2022-09-11T05:00:11.402Z,99818.97
2022-09-11T05:02:37.765Z,99820.97
2022-09-11T05:05:04.590Z,99823.78
2022-09-11T05:07:30.980Z,99821.25
2022-09-11T05:09:57.463Z,99831.53
2022-09-11T05:12:23.823Z,99822.56
2022-09-11T05:14:50.216Z,99824.75
2022-09-11T05:17:16.572Z,99818.38
2022-09-11T05:19:43.000Z,99813.81
2022-09-11T05:22:09.343Z,99820.59
2022-09-11T05:24:35.751Z,99822.97
2022-09-11T05:27:02.147Z,99818.16
2022-09-11T05:29:32.257Z,99808.91
2022-09-11T05:31:59.184Z,99803.78
2022-09-11T05:34:26.597Z,99789.53
2022-09-11T05:36:52.962Z,99793.03
2022-09-11T05:39:19.340Z,99800.75
2022-09-11T05:41:45.693Z,99801.50
2022-09-11T05:44:12.034Z,99785.78
2022-09-11T05:46:38.369Z,99774.44
2022-09-11T05:49:04.729Z,99765.69
2022-09-11T05:51:31.085Z,99748.16
2022-09-11T05:53:57.490Z,99734.44
2022-09-11T05:56:25.345Z,99732.53
2022-09-11T05:58:52.000Z,99732.53
2022-09-11T06:01:20.685Z,99716.47
2022-09-11T06:03:47.144Z,99616.66
2022-09-11T06:06:13.565Z,99577.84
2022-09-11T06:08:41.289Z,99520.91
2022-09-11T06:11:07.814Z,99447.81
2022-09-11T06:13:40.191Z,99245.25
2022-09-11T06:16:18.415Z,99003.63
2022-09-11T06:18:46.571Z,98965.28
2022-09-11T06:21:13.371Z,98934.81
2022-09-11T06:23:39.987Z,98902.06
2022-09-11T06:26:17.264Z,98875.66
2022-09-11T06:28:43.692Z,98826.81
2022-09-11T06:31:12.802Z,98809.06
2022-09-11T06:33:41.230Z,98870.47
2022-09-11T06:36:11.223Z,98994.69
2022-09-11T06:38:37.751Z,99162.91
2022-09-11T06:41:06.671Z,99286.84
2022-09-11T06:43:33.363Z,99498.69
2022-09-11T06:46:07.734Z,99867.41
2022-09-11T06:48:34.201Z,100169.09
2022-09-11T06:51:04.533Z,100284.25
2022-09-11T06:53:30.937Z,100360.78
2022-09-11T06:56:02.139Z,100391.03
2022-09-11T06:58:29.046Z,100428.53
2022-09-11T07:01:06.077Z,100500.72
2022-09-11T07:03:33.074Z,100572.41
2022-09-11T07:06:00.558Z,100615.22
2022-09-11T07:08:27.481Z,100576.41
2022-09-11T07:10:54.325Z,100534.94
2022-09-11T07:13:21.211Z,100520.88
2022-09-11T07:15:47.594Z,100554.09
2022-09-11T07:18:13.941Z,100610.69
2022-09-11T07:20:41.144Z,100581.75
2022-09-11T07:23:08.438Z,100498.00
2022-09-11T07:25:37.007Z,100672.97
2022-09-11T07:28:03.586Z,100948.75
2022-09-11T07:30:30.044Z,101314.81
2022-09-11T07:32:56.503Z,101594.69
2022-09-11T07:35:22.971Z,101876.75
2022-09-11T07:37:50.964Z,102045.03
2022-09-11T07:40:17.667Z,102148.06
2022-09-11T07:42:44.305Z,102201.56
2022-09-11T07:45:13.422Z,102232.81
2022-09-11T07:47:50.259Z,102254.22
2022-09-11T07:50:18.020Z,102272.00
2022-09-11T07:52:44.429Z,102267.19
2022-09-11T07:55:10.954Z,102252.75
2022-09-11T07:57:37.421Z,102216.16
2022-09-11T08:00:04.366Z,102230.34
2022-09-11T08:02:30.770Z,102271.63
2022-09-11T08:04:57.249Z,102281.00
2022-09-11T08:07:23.645Z,102264.00
2022-09-11T08:10:04.357Z,102261.91
2022-09-11T08:12:36.553Z,102257.28
2022-09-11T08:15:02.992Z,102278.13
2022-09-11T08:17:29.342Z,102290.81
2022-09-11T08:19:55.812Z,102275.59
2022-09-11T08:22:22.280Z,102300.53
2022-09-11T08:24:48.629Z,102311.03
2022-09-11T08:27:15.087Z,102276.75
2022-09-11T08:29:41.413Z,102222.31
2022-09-11T08:32:07.769Z,102139.09
2022-09-11T08:34:34.411Z,102066.63
2022-09-11T08:37:00.816Z,101968.44
2022-09-11T08:39:27.211Z,102072.06
2022-09-11T08:42:02.053Z,102027.56
2022-09-11T08:44:39.203Z,101809.03
2022-09-11T08:47:10.213Z,102255.22
2022-09-11T08:49:41.411Z,102323.16
2022-09-11T08:52:14.137Z,102346.38
2022-09-11T08:54:42.157Z,102332.25
2022-09-11T08:57:20.382Z,102335.03
2022-09-11T09:00:15.375Z,102339.69
2022-09-11T09:03:09.898Z,102341.78
2022-09-11T09:05:56.727Z,102332.16
2022-09-11T09:08:41.821Z,102340.84
2022-09-11T09:11:46.768Z,102336.38
2022-09-11T09:14:38.272Z,102352.94
2022-09-11T09:17:07.474Z,102341.25
2022-09-11T09:19:52.249Z,102344.94
2022-09-11T09:22:28.213Z,102362.63
2022-09-11T09:24:59.050Z,102390.72
2022-09-11T09:27:33.619Z,102383.44
2022-09-11T09:30:04.164Z,102363.22
2022-09-11T09:32:34.973Z,102361.75
2022-09-11T09:35:11.469Z,102356.63
2022-09-11T09:37:38.938Z,102343.50
2022-09-11T09:40:08.966Z,102347.81
2022-09-11T09:42:57.631Z,102358.63
2022-09-11T09:45:52.409Z,102350.69
2022-09-11T09:48:18.938Z,102374.22
2022-09-11T09:50:45.575Z,102408.56
2022-09-11T09:53:21.410Z,102424.59
2022-09-11T09:55:48.970Z,102448.84
2022-09-11T09:58:15.368Z,102441.66
2022-09-11T10:00:42.117Z,102422.63
2022-09-11T10:03:20.161Z,102407.00
2022-09-11T10:05:48.717Z,102383.47
2022-09-11T10:08:24.166Z,102359.69
2022-09-11T10:11:01.400Z,102340.31
2022-09-11T10:13:31.297Z,102311.34
2022-09-11T10:16:03.827Z,102363.38
2022-09-11T10:18:30.212Z,102353.91
2022-09-11T10:21:11.782Z,102358.31
2022-09-11T10:23:54.687Z,102354.06
2022-09-11T10:26:42.719Z,102356.09
2022-09-11T10:29:11.828Z,102348.59
2022-09-11T10:31:49.632Z,102365.31
2022-09-11T10:34:18.900Z,102383.63
2022-09-11T10:37:11.625Z,102354.81
2022-09-11T10:39:38.478Z,102350.69
2022-09-11T10:42:16.635Z,102356.28
2022-09-11T10:44:45.534Z,102356.63
2022-09-11T10:47:21.124Z,102350.94
2022-09-11T10:49:48.240Z,102354.41
2022-09-11T10:52:14.647Z,102347.53
2022-09-11T10:54:47.163Z,102336.31
2022-09-11T10:57:13.535Z,102336.47
2022-09-11T10:59:59.746Z,102341.69
2022-09-11T11:02:31.168Z,102337.63
2022-09-11T11:05:03.377Z,102337.13
2022-09-11T11:07:38.734Z,102333.16
2022-09-11T11:10:36.213Z,102366.16
2022-09-11T11:13:30.501Z,102360.63
2022-09-11T11:16:21.824Z,102344.75
2022-09-11T11:18:56.603Z,102328.19
2022-09-11T11:21:32.308Z,102334.38
2022-09-11T11:24:37.207Z,102320.53
2022-09-11T11:27:37.246Z,102345.72
2022-09-11T11:30:11.188Z,102325.94
2022-09-11T11:33:10.133Z,102338.91
2022-09-11T11:35:45.826Z,102329.25
2022-09-11T11:38:22.080Z,102353.56
2022-09-11T11:40:54.456Z,102369.13
2022-09-11T11:43:27.466Z,102392.41
2022-09-11T11:45:53.859Z,102412.56
2022-09-11T11:48:46.852Z,102408.91
2022-09-11T11:51:19.158Z,102391.50
2022-09-11T11:53:59.506Z,102383.13
2022-09-11T11:56:31.837Z,102385.91
2022-09-11T11:58:58.236Z,102370.81
2022-09-11T12:01:32.603Z,102380.41
2022-09-11T12:04:16.007Z,102375.34
2022-09-11T12:06:42.522Z,102365.97
2022-09-11T12:09:09.413Z,102357.69
2022-09-11T12:11:36.151Z,102353.44
2022-09-11T12:14:02.929Z,102358.47
2022-09-11T12:16:33.868Z,102350.97
2022-09-11T12:19:04.957Z,102351.97
2022-09-11T12:21:31.306Z,102361.25
2022-09-11T12:23:57.627Z,102349.25
2022-09-11T12:26:25.396Z,102338.28
2022-09-11T12:29:10.538Z,102325.41
2022-09-11T12:32:18.715Z,102311.91
2022-09-11T12:34:45.086Z,102268.38
2022-09-11T12:37:19.623Z,102225.38
2022-09-11T12:40:01.888Z,102197.28
2022-09-11T12:42:31.349Z,102192.56
2022-09-11T12:44:58.564Z,102150.09
2022-09-11T12:47:37.333Z,102128.91
2022-09-11T12:50:15.037Z,102132.81
2022-09-11T12:52:50.460Z,102121.41
2022-09-11T12:55:31.365Z,102087.66
2022-09-11T12:58:02.540Z,102078.13
2022-09-11T13:00:41.840Z,102069.19
2022-09-11T13:03:19.344Z,102012.47
2022-09-11T13:05:55.349Z,101959.34
2022-09-11T13:08:26.221Z,101875.94
2022-09-11T13:10:52.670Z,101833.38
2022-09-11T13:13:34.496Z,101811.50
2022-09-11T13:16:19.488Z,101726.66
2022-09-11T13:18:46.228Z,101702.69
2022-09-11T13:21:15.667Z,101742.22
2022-09-11T13:23:42.174Z,101771.66
2022-09-11T13:26:15.347Z,101881.94
2022-09-11T13:28:49.218Z,102009.09
2022-09-11T13:31:24.964Z,102046.00
2022-09-11T13:33:52.532Z,102028.81
2022-09-11T13:36:24.688Z,102051.53
2022-09-11T13:38:57.994Z,101945.97
2022-09-11T13:41:29.023Z,102030.22
2022-09-11T13:43:58.628Z,102061.38
2022-09-11T13:46:26.073Z,102087.59
2022-09-11T13:49:19.820Z,102075.69
2022-09-11T13:51:47.808Z,102053.47
2022-09-11T13:54:18.250Z,102038.81
2022-09-11T13:56:46.115Z,102045.66
2022-09-11T13:59:43.484Z,102054.44
2022-09-11T14:02:27.328Z,102060.06
2022-09-11T14:05:02.043Z,102046.41
2022-09-11T14:07:28.668Z,102034.22
2022-09-11T14:10:07.727Z,102061.22
2022-09-11T14:12:46.549Z,102076.56
2022-09-11T14:15:21.809Z,102109.50
2022-09-11T14:17:48.575Z,102126.31
2022-09-11T14:20:18.981Z,102137.94
2022-09-11T14:22:46.183Z,102125.19
2022-09-11T14:25:21.287Z,102129.06
2022-09-11T14:27:48.175Z,102132.03
2022-09-11T14:30:25.331Z,102128.97
2022-09-11T14:33:13.178Z,102125.69
2022-09-11T14:35:39.919Z,102121.50
2022-09-11T14:38:06.510Z,102113.69
2022-09-11T14:40:32.861Z,102109.66
2022-09-11T14:42:59.339Z,102112.69
2022-09-11T14:45:25.702Z,102109.50
2022-09-11T14:47:52.867Z,102099.94
2022-09-11T14:50:19.302Z,102102.50
2022-09-11T14:52:45.763Z,102093.53
2022-09-11T14:55:19.714Z,102069.41
2022-09-11T14:57:46.512Z,102064.59
2022-09-11T15:00:18.563Z,102083.66
2022-09-11T15:02:45.354Z,102080.97
2022-09-11T15:05:16.302Z,102076.63
2022-09-11T15:07:43.243Z,102076.97
2022-09-11T15:10:10.860Z,102071.41
2022-09-11T15:12:37.250Z,102075.06
2022-09-11T15:15:04.699Z,102075.66
2022-09-11T15:17:31.415Z,102078.03
2022-09-11T15:19:58.416Z,102082.53
2022-09-11T15:22:25.225Z,102067.63
2022-09-11T15:24:51.709Z,102095.38
2022-09-11T15:27:18.262Z,102099.03
2022-09-11T15:29:45.341Z,102073.06
2022-09-11T15:32:12.309Z,102080.84
2022-09-11T15:34:38.842Z,102077.88
2022-09-11T15:37:06.232Z,102073.00
2022-09-11T15:39:32.866Z,102070.25
2022-09-11T15:41:59.462Z,102072.91
2022-09-11T15:44:27.429Z,102075.19
2022-09-11T15:46:55.105Z,102047.63
2022-09-11T15:49:22.560Z,102038.28
2022-09-11T15:51:50.155Z,102047.34
2022-09-11T15:54:17.364Z,102041.00
2022-09-11T15:56:44.113Z,102065.59
2022-09-11T15:59:12.035Z,102090.16
2022-09-11T16:01:38.860Z,102079.06
2022-09-11T16:04:11.425Z,102068.91
2022-09-11T16:06:40.785Z,102060.44
2022-09-11T16:09:12.565Z,102060.69
2022-09-11T16:11:39.837Z,102030.41
2022-09-11T16:14:07.274Z,102016.25
2022-09-11T16:16:34.227Z,101996.03
2022-09-11T16:19:00.892Z,101995.31
2022-09-11T16:21:28.318Z,101972.00
2022-09-11T16:24:00.739Z,101960.16
2022-09-11T16:26:28.006Z,101966.16
2022-09-11T16:28:54.659Z,101987.28
2022-09-11T16:31:21.073Z,101990.69
2022-09-11T16:33:51.809Z,101991.22
2022-09-11T16:36:20.885Z,101993.69
2022-09-11T16:38:49.842Z,101979.63
2022-09-11T16:41:21.859Z,101973.09
2022-09-11T16:43:52.133Z,101945.78
2022-09-11T16:46:24.559Z,101894.75
2022-09-11T16:48:54.472Z,101840.88
2022-09-11T16:51:22.503Z,101772.41
2022-09-11T16:53:49.728Z,101708.41
2022-09-11T16:56:19.437Z,101715.44
2022-09-11T16:58:46.191Z,101688.13
2022-09-11T17:01:15.333Z,101493.47
2022-09-11T17:03:43.498Z,101488.06
2022-09-11T17:06:10.423Z,101418.16
2022-09-11T17:08:37.654Z,101329.97
2022-09-11T17:11:04.127Z,101296.34
2022-09-11T17:13:30.474Z,101276.81
2022-09-11T17:16:16.210Z,101290.16
2022-09-11T17:18:52.089Z,101164.94
2022-09-11T17:21:18.498Z,101172.31
2022-09-11T17:23:45.064Z,101204.63
2022-09-11T17:26:13.357Z,101244.72
2022-09-11T17:28:40.295Z,100872.13
2022-09-11T17:31:08.989Z,100928.81
2022-09-11T17:33:38.190Z,101016.94
2022-09-11T17:36:06.358Z,101112.13
2022-09-11T17:38:35.271Z,101002.88
2022-09-11T17:41:04.804Z,100902.31
2022-09-11T17:43:32.117Z,100933.63
2022-09-11T17:46:10.491Z,100931.13
2022-09-11T17:48:38.511Z,100942.13
2022-09-11T17:51:25.215Z,100954.88
2022-09-11T17:53:54.882Z,100973.00
2022-09-11T17:56:23.902Z,101000.50
2022-09-11T17:58:56.545Z,101045.28
2022-09-11T18:01:24.603Z,101086.84
2022-09-11T18:03:56.669Z,101131.28
2022-09-11T18:06:27.740Z,101145.00
2022-09-11T18:08:57.275Z,101176.94
2022-09-11T18:11:24.150Z,101199.69
2022-09-11T18:13:50.568Z,101200.44
2022-09-11T18:16:17.109Z,101233.19
2022-09-11T18:18:43.575Z,101292.28
2022-09-11T18:21:11.509Z,101332.97
2022-09-11T18:23:42.417Z,101375.81
2022-09-11T18:26:13.961Z,101400.06
2022-09-11T18:28:40.326Z,101418.63
2022-09-11T18:31:07.012Z,101427.88
2022-09-11T18:33:33.621Z,101439.16
2022-09-11T18:36:05.475Z,101447.41
2022-09-11T18:38:33.199Z,101464.81
2022-09-11T18:41:00.235Z,101477.50
2022-09-11T18:43:28.133Z,101491.13
2022-09-11T18:45:55.147Z,101490.69
2022-09-11T18:48:21.602Z,101491.91
2022-09-11T18:50:48.058Z,101491.47
2022-09-11T18:53:14.508Z,101496.09
2022-09-11T18:55:40.901Z,101497.09
2022-09-11T18:58:07.345Z,101501.16
2022-09-11T19:00:33.915Z,101506.81
2022-09-11T19:03:00.487Z,101512.28
2022-09-11T19:05:26.850Z,101514.31
2022-09-11T19:07:53.284Z,101516.41
2022-09-11T19:10:19.638Z,101513.25
2022-09-11T19:12:48.283Z,101520.75
2022-09-11T19:15:14.702Z,101519.03
2022-09-11T19:17:42.061Z,101517.59
2022-09-11T19:20:09.408Z,101518.91
2022-09-11T19:22:35.890Z,101519.31
2022-09-11T19:25:02.306Z,101510.63
2022-09-11T19:27:28.870Z,101502.75
2022-09-11T19:29:55.215Z,101498.38
2022-09-11T19:32:21.625Z,101493.34
2022-09-11T19:34:48.061Z,101487.47
2022-09-11T19:37:14.482Z,101486.66
2022-09-11T19:39:40.946Z,101482.53
2022-09-11T19:42:07.337Z,101479.94
2022-09-11T19:44:33.747Z,101470.50
2022-09-11T19:47:01.966Z,101469.69
2022-09-11T19:49:28.840Z,101460.25
2022-09-11T19:51:57.196Z,101435.50
2022-09-11T19:54:24.235Z,101448.69
2022-09-11T19:56:52.304Z,101454.94
2022-09-11T19:59:18.822Z,101450.50
2022-09-11T20:01:45.507Z,101439.50
2022-09-11T20:04:12.105Z,101448.22
2022-09-11T20:06:38.534Z,101447.00
2022-09-11T20:11:52.390Z,101445.34
2022-09-11T20:14:18.980Z,101453.59
2022-09-11T20:16:45.614Z,101447.72
2022-09-11T20:19:12.152Z,101437.25
2022-09-11T20:21:38.572Z,101425.94
2022-09-11T20:24:05.584Z,101410.16
2022-09-11T20:26:32.185Z,101396.25
2022-09-11T20:29:02.672Z,101378.94
2022-09-11T20:31:31.570Z,101375.34
2022-09-11T20:34:00.698Z,101371.03
2022-09-11T20:36:27.866Z,101375.63
2022-09-11T20:38:56.387Z,101361.53
2022-09-11T20:41:23.067Z,101355.41
2022-09-11T20:43:50.085Z,101363.75
2022-09-11T20:46:16.548Z,101344.63
2022-09-11T20:48:42.970Z,101347.38
2022-09-11T20:51:12.152Z,101315.84
2022-09-11T20:53:40.414Z,101310.53
2022-09-11T20:56:09.339Z,101303.69
2022-09-11T20:58:36.692Z,101294.94
2022-09-11T21:01:04.027Z,101289.00
2022-09-11T21:03:31.421Z,101277.72
2022-09-11T21:06:04.808Z,101274.16
2022-09-11T21:08:31.171Z,101262.78
2022-09-11T21:11:01.922Z,101256.72
2022-09-11T21:13:28.508Z,101247.91
2022-09-11T21:15:54.945Z,101247.16
2022-09-11T21:18:21.342Z,101237.56
2022-09-11T21:20:55.444Z,101235.75
2022-09-11T21:23:23.495Z,101221.09
2022-09-11T21:25:52.688Z,101230.97
2022-09-11T21:28:19.462Z,101224.84
2022-09-11T21:30:45.826Z,101218.81
2022-09-11T21:33:12.362Z,101219.13
2022-09-11T21:35:38.760Z,101222.81
2022-09-11T21:38:05.306Z,101214.34
2022-09-11T21:40:31.744Z,101202.66
2022-09-11T21:42:58.268Z,101201.22
2022-09-11T21:45:24.826Z,101187.06
2022-09-11T21:47:51.212Z,101176.47
2022-09-11T21:50:19.332Z,101255.34
2022-09-11T21:52:47.884Z,101269.63
2022-09-11T21:55:15.486Z,101263.78
2022-09-11T21:57:42.237Z,101257.63
2022-09-11T22:00:11.954Z,101267.50
2022-09-11T22:02:41.071Z,101267.50
2022-09-11T22:05:07.772Z,101266.19
2022-09-11T22:07:34.226Z,101268.97
2022-09-11T22:10:00.572Z,101256.81
2022-09-11T22:12:26.949Z,101256.97
2022-09-11T22:14:53.406Z,101257.88
2022-09-11T22:17:19.843Z,101258.03
2022-09-11T22:19:46.244Z,101248.22
2022-09-11T22:22:13.721Z,101251.00
2022-09-11T22:24:45.908Z,101241.41
2022-09-11T22:27:14.591Z,101232.47
2022-09-11T22:29:43.986Z,101238.84
2022-09-11T22:32:15.791Z,101231.03
2022-09-11T22:34:42.240Z,101239.13
2022-09-11T22:37:09.714Z,101219.53
2022-09-11T22:39:36.341Z,101220.38
2022-09-11T22:42:05.306Z,101214.22
2022-09-11T22:44:33.016Z,101217.22
2022-09-11T22:47:00.519Z,101202.34
2022-09-11T22:49:29.698Z,101233.22
2022-09-11T22:51:56.172Z,101255.53
2022-09-11T22:54:23.872Z,101245.78
2022-09-11T22:56:50.412Z,101246.66
2022-09-11T22:59:16.933Z,101251.34
2022-09-11T23:01:44.628Z,101249.63
2022-09-11T23:04:11.257Z,101246.81
2022-09-11T23:06:37.728Z,101245.31
2022-09-11T23:09:05.486Z,101236.59
2022-09-11T23:11:31.961Z,101234.72
2022-09-11T23:13:58.368Z,101237.56
2022-09-11T23:16:27.845Z,101211.06
2022-09-11T23:19:02.927Z,101205.00
2022-09-11T23:21:30.800Z,101208.69
2022-09-11T23:23:58.364Z,101208.97
2022-09-11T23:26:26.277Z,101202.00
2022-09-11T23:28:53.098Z,101194.44
2022-09-11T23:31:22.584Z,101189.06
2022-09-11T23:33:48.987Z,101044.81
2022-09-11T23:36:15.970Z,101025.56
2022-09-11T23:38:47.111Z,101016.13
2022-09-11T23:41:15.010Z,101000.13
2022-09-11T23:43:41.916Z,100986.13
2022-09-11T23:46:08.644Z,100986.44
2022-09-11T23:48:35.990Z,100982.06
2022-09-11T23:51:02.530Z,100961.84
2022-09-11T23:53:29.807Z,100949.56
2022-09-11T23:55:57.279Z,100940.06
2022-09-11T23:58:24.556Z,100939.25
